createdAt,value
2022-11-28T00:03:59.810Z,0.0
2022-11-28T00:09:01.002Z,0.0
2022-11-28T00:14:01.930Z,0.0
2022-11-28T00:19:02.906Z,0.0
2022-11-28T00:24:03.893Z,0.0
2022-11-28T00:29:04.928Z,0.0
2022-11-28T00:34:05.938Z,0.0
2022-11-28T00:39:06.955Z,0.0
2022-11-28T00:44:07.979Z,0.0
2022-11-28T00:49:08.933Z,0.0
2022-11-28T00:54:09.917Z,0.0
2022-11-28T00:59:10.819Z,0.0
2022-11-28T01:04:11.748Z,0.0
2022-11-28T01:09:12.724Z,0.0
2022-11-28T01:14:13.622Z,0.0
2022-11-28T01:19:14.521Z,0.0
2022-11-28T01:24:15.545Z,0.0
2022-11-28T01:29:16.472Z,0.0
2022-11-28T01:34:17.385Z,0.0
2022-11-28T01:39:18.388Z,0.0
2022-11-28T01:44:19.307Z,0.0
2022-11-28T01:49:20.254Z,0.0
2022-11-28T01:54:21.345Z,0.0
2022-11-28T01:59:22.263Z,0.0
2022-11-28T02:04:23.218Z,0.0
2022-11-28T02:09:24.142Z,0.0
2022-11-28T02:14:25.367Z,0.0
2022-11-28T02:19:26.338Z,0.0
2022-11-28T02:24:27.261Z,0.0
2022-11-28T02:29:28.267Z,0.0
2022-11-28T02:34:29.392Z,0.0
2022-11-28T02:39:30.371Z,0.0
2022-11-28T02:44:31.430Z,0.0
2022-11-28T02:49:32.361Z,0.0
2022-11-28T02:54:33.441Z,0.0
2022-11-28T02:59:34.392Z,0.0
2022-11-28T03:04:35.366Z,0.0
2022-11-28T03:09:36.239Z,0.0
2022-11-28T03:14:37.138Z,0.0
2022-11-28T03:19:38.040Z,0.0
2022-11-28T03:24:39.002Z,0.0
2022-11-28T03:29:40.013Z,0.0
2022-11-28T03:34:41.247Z,0.0
2022-11-28T03:39:42.539Z,0.0
2022-11-28T03:44:43.813Z,0.0
2022-11-28T03:49:45.060Z,0.0
2022-11-28T03:54:46.114Z,0.0
2022-11-28T03:59:47.073Z,0.0
2022-11-28T04:04:47.965Z,0.0
2022-11-28T04:09:48.875Z,0.0
2022-11-28T04:14:49.842Z,0.0
2022-11-28T04:19:50.711Z,0.0
2022-11-28T04:24:51.631Z,0.0
2022-11-28T04:29:52.548Z,0.0
2022-11-28T04:34:53.777Z,0.0
2022-11-28T04:39:54.938Z,0.0
2022-11-28T04:44:55.991Z,0.0
2022-11-28T04:49:56.926Z,0.0
2022-11-28T04:54:57.905Z,0.0
2022-11-28T04:59:58.902Z,0.0
2022-11-28T05:04:59.812Z,0.0
2022-11-28T05:10:00.720Z,0.0
2022-11-28T05:15:01.617Z,0.0
2022-11-28T05:20:02.502Z,0.0
2022-11-28T05:25:03.824Z,0.0
2022-11-28T05:30:04.763Z,0.0
2022-11-28T05:35:05.735Z,0.0
2022-11-28T05:40:06.805Z,0.0
2022-11-28T05:45:07.948Z,0.0
2022-11-28T05:50:08.920Z,0.0
2022-11-28T05:55:09.904Z,0.0
2022-11-28T06:00:10.871Z,0.0
2022-11-28T06:05:40.410Z,0.0
2022-11-28T06:10:42.582Z,0.4148
2022-11-28T06:15:43.780Z,0.5333
2022-11-28T06:20:44.838Z,1.2444
2022-11-28T06:25:45.798Z,2.87705
2022-11-28T06:30:47.726Z,9.6637
2022-11-28T06:35:48.828Z,13.7026
2022-11-28T06:40:50.198Z,10.8441
2022-11-28T06:45:51.258Z,32.6611
2022-11-28T06:50:52.205Z,43.72625
2022-11-28T06:55:53.160Z,61.81765
2022-11-28T07:00:54.179Z,75.39095
2022-11-28T07:05:55.402Z,85.79245
2022-11-28T07:10:56.332Z,112.0358
2022-11-28T07:15:57.221Z,137.4672
2022-11-28T07:20:58.270Z,182.0054
2022-11-28T07:25:59.185Z,246.0193
2022-11-28T07:31:00.175Z,300.3695
2022-11-28T07:36:01.093Z,387.9513
2022-11-28T07:41:01.979Z,446.6713
2022-11-28T07:46:03.001Z,465.68495
2022-11-28T07:51:03.962Z,457.95705
2022-11-28T07:56:05.190Z,457.533
2022-11-28T08:01:06.147Z,484.73475
2022-11-28T08:06:07.093Z,511.77105
2022-11-28T08:11:08.048Z,453.76985
2022-11-28T08:16:08.997Z,568.40695
2022-11-28T08:21:10.171Z,656.0629
2022-11-28T08:26:11.088Z,742.00365
2022-11-28T08:31:12.213Z,869.60555
2022-11-28T08:36:13.195Z,1010.7446
2022-11-28T08:41:14.135Z,1109.52085
2022-11-28T08:46:15.147Z,1237.9157
2022-11-28T08:51:16.076Z,1336.0283
2022-11-28T08:56:17.112Z,1530.24355
2022-11-28T09:01:18.108Z,1767.83515
2022-11-28T09:06:19.040Z,1946.07925
2022-11-28T09:11:19.923Z,2107.44895
2022-11-28T09:16:20.971Z,2125.41105
2022-11-28T09:21:21.931Z,1805.32625
2022-11-28T09:26:22.847Z,1678.6466
2022-11-28T09:31:23.988Z,1876.606
2022-11-28T09:36:25.011Z,1915.3521
2022-11-28T09:41:26.201Z,1809.36515
2022-11-28T09:46:27.225Z,1671.34275
2022-11-28T09:51:28.201Z,1565.15235
2022-11-28T09:56:29.125Z,1381.7075
2022-11-28T10:01:30.071Z,1202.7256
2022-11-28T10:06:30.987Z,1108.0434
2022-11-28T10:11:31.887Z,1023.20935
2022-11-28T10:16:32.908Z,985.7164
2022-11-28T10:21:33.860Z,982.0464
2022-11-28T10:26:34.767Z,1032.3197
2022-11-28T10:31:35.682Z,1079.5315
2022-11-28T10:36:36.602Z,1045.81885
2022-11-28T10:41:37.595Z,904.9574
2022-11-28T10:46:38.547Z,805.8864
2022-11-28T10:51:39.443Z,764.00465
2022-11-28T10:56:40.456Z,706.52065
2022-11-28T11:01:43.763Z,685.47805
2022-11-28T11:07:07.558Z,690.4392
2022-11-28T11:12:11.073Z,717.05145
2022-11-28T11:17:11.966Z,745.3789
2022-11-28T11:22:12.916Z,793.0889
2022-11-28T11:27:13.802Z,816.14145
2022-11-28T11:32:14.748Z,836.5014
2022-11-28T11:37:15.744Z,817.9118
2022-11-28T11:42:16.656Z,789.84295
2022-11-28T11:47:17.617Z,793.8267
2022-11-28T11:52:18.537Z,811.25445
2022-11-28T11:57:32.605Z,834.12255
2022-11-28T12:02:34.840Z,790.82035
2022-11-28T12:07:35.878Z,723.41405
2022-11-28T12:12:36.810Z,659.78805
2022-11-28T12:34:19.475Z,521.2313
2022-11-28T12:39:20.471Z,506.86505
2022-11-28T12:44:21.385Z,499.89395
2022-11-28T12:49:22.282Z,496.5377
2022-11-28T12:54:23.193Z,507.677
2022-11-28T12:59:24.116Z,511.16255
2022-11-28T13:04:25.164Z,496.48255
2022-11-28T13:09:26.348Z,472.9318
2022-11-28T13:14:27.324Z,434.0184
2022-11-28T13:19:28.247Z,391.14025
2022-11-28T13:24:29.179Z,360.67355
2022-11-28T13:29:30.152Z,343.06135
2022-11-28T13:34:31.051Z,324.47175
2022-11-28T13:39:31.954Z,296.6425
2022-11-28T13:44:32.874Z,272.9073
2022-11-28T13:49:33.811Z,247.77065
2022-11-28T13:54:34.736Z,219.99655
2022-11-28T13:59:35.690Z,184.8273
2022-11-28T14:04:36.636Z,161.0921
2022-11-28T14:09:37.560Z,143.53505
2022-11-28T14:14:38.488Z,119.1362
2022-11-28T14:19:39.410Z,111.0584
2022-11-28T14:24:40.342Z,102.18765
2022-11-28T14:29:41.289Z,88.24545
2022-11-28T20:55:56.846Z,0.0
2022-11-28T21:00:57.998Z,0.0
2022-11-28T21:06:01.272Z,0.0
2022-11-28T21:11:03.680Z,0.0
2022-11-28T21:16:04.883Z,0.0
2022-11-28T21:21:06.099Z,0.0
